IMK - Bhop Stats - Record Database

muddz auTOP Records (85)

Run ID SteamID Name Map Style / Track Time Jumps Strafes Sync Points Date (YYYY-MM-DD)
4752 150155514 muddz auTOP bhop_rikudo Normal / Main 52.312s 67 116 93.08% 88.25 2019-03-25 08:06:56
6261 150155514 muddz auTOP bhop_epiphany_csgo Normal / Main 07:39.718m 574 872 92.48% 223.52 2019-04-06 12:01:42
6263 150155514 muddz auTOP bhop_evict Normal / Main 13.890s 20 39 88.57% 74.71 2019-04-06 12:32:31
6595 150155514 muddz auTOP bhop_lo6ka Normal / Main 47.843s 56 92 93.33% 153.19 2019-04-09 12:57:27
7768 150155514 muddz auTOP bhop_blu_beta Normal / Main 35.437s 38 93 83.75% 70.82 2019-04-16 09:52:43
8542 150155514 muddz auTOP bhop_mint Normal / Main 38.648s 52 83 94.46% 152.58 2019-04-20 08:30:55
10047 150155514 muddz auTOP bhop_4u Normal / Main 27.171s 28 55 93.72% 151.81 2019-04-27 08:04:24
10052 150155514 muddz auTOP bhop_greenhouse Normal / Main 18.906s 26 66 86.21% 67.98 2019-04-27 08:20:09
11231 150155514 muddz auTOP bhop_seiz Normal / Main 36.976s 47 94 92.13% 152.47 2019-05-03 12:21:34
11287 150155514 muddz auTOP bhop_despair Normal / Main 31.148s 39 69 92.56% 74.80 2019-05-04 08:44:38
14497 150155514 muddz auTOP bhop_biff Normal / Main 29.148s 39 71 90.79% 48.28 2019-05-25 05:28:42
14499 150155514 muddz auTOP bhop_global_d Normal / Main 28.656s 34 70 92.71% 58.85 2019-05-25 05:37:43
14522 150155514 muddz auTOP bhop_wildcard Normal / Bonus 10.820s 16 24 93.35% 18.93 2019-05-25 06:09:37
14527 150155514 muddz auTOP bhop_dom Normal / Main 27.648s 27 71 94.53% 71.25 2019-05-25 06:18:26
14531 150155514 muddz auTOP bhop_sina_csgo Normal / Main 07:17.375m 521 866 90.24% 448.52 2019-05-25 07:00:58
18092 150155514 muddz auTOP bhop_liquor_spat Normal / Main 44.406s 54 109 85.89% 30.82 2019-06-23 10:27:22
18101 150155514 muddz auTOP bhop_bobahop_fix Normal / Main 50.516s 61 106 89.59% 113.88 2019-06-23 10:51:11
19110 150155514 muddz auTOP bhop_spookyland Normal / Main 43.563s 58 68 94.88% 144.11 2019-07-01 10:16:13
19903 150155514 muddz auTOP bhop_easy_csgo Normal / Main 01:51.664m 122 227 87.69% 44.03 2019-07-07 11:32:47
20322 150155514 muddz auTOP bhop_aamu2 Normal / Main 57.367s 53 69 94.62% 378.82 2019-07-09 10:39:30
20762 150155514 muddz auTOP bhop_mist_3 Normal / Main 02:04.852m 143 316 86.94% 80.63 2019-07-11 11:54:37
20766 150155514 muddz auTOP bhop_mist_3 Normal / Bonus 12.578s 17 34 89.06% 18.07 2019-07-11 11:58:15
20768 150155514 muddz auTOP bhop_mist_3 Sideways / Bonus 12.906s 17 36 96.04% 18.97 2019-07-11 12:01:43
20770 150155514 muddz auTOP bhop_mist_3 Half-Sideways / Bonus 15.313s 20 18 100.00% 19.01 2019-07-11 12:05:19
20771 150155514 muddz auTOP bhop_mist_3 A-Only / Bonus 17.703s 23 0 95.35% 19.05 2019-07-11 12:10:06
21656 150155514 muddz auTOP bhop_redmin Normal / Main 31.188s 35 70 90.23% 113.32 2019-07-17 10:51:42
22396 150155514 muddz auTOP bhop_dangobango_v2 Normal / Main 39.625s 47 79 92.21% 109.62 2019-07-22 07:10:24
30828 150155514 muddz auTOP bhop_kz_ravine Normal / Main 14.313s 13 51 87.02% 74.90 2019-09-13 09:26:32
30834 150155514 muddz auTOP bhop_focus Normal / Main 04:48.070m 371 696 82.91% 241.74 2019-09-13 09:32:46
30843 150155514 muddz auTOP bhop_MirrorsEdge_csgo Normal / Bonus 3.984s 3 13 85.60% 17.15 2019-09-13 09:44:26
30863 150155514 muddz auTOP bhop_MirrorsEdge_csgo Half-Sideways / Main 24.141s 21 38 94.67% 151.61 2019-09-13 09:57:19
30866 150155514 muddz auTOP bhop_MirrorsEdge_csgo Sideways / Main 21.930s 19 46 88.55% 151.46 2019-09-13 10:00:27
30874 150155514 muddz auTOP bhop_MirrorsEdge_csgo W-Only / Main 26.859s 26 0 89.45% 151.79 2019-09-13 10:03:45
31098 150155514 muddz auTOP bhop_lessthandirt Normal / Main 21.563s 29 57 88.79% 63.61 2019-09-14 11:52:55
31102 150155514 muddz auTOP bhop_jx_csgo Normal / Main 18.867s 23 44 90.79% 73.02 2019-09-14 12:14:44
31986 150155514 muddz auTOP bhop_mp_stairs_hq_csgo_b1 Normal / Main 11.469s 13 46 88.92% 72.22 2019-09-18 11:02:55
31991 150155514 muddz auTOP bhop_blackglow_csgo Normal / Main 02:13.406m 165 275 92.84% 233.89 2019-09-18 11:19:26
31992 150155514 muddz auTOP bhop_fruits2 Normal / Main 07:14.188m 344 720 90.46% 478.95 2019-09-18 11:34:35
33817 150155514 muddz auTOP bhop_dust_temple Normal / Main 12.133s 17 45 87.56% 71.52 2019-09-27 08:57:22
34825 150155514 muddz auTOP bhop_5minutes_v1 Normal / Main 46.078s 59 84 92.94% 228.07 2019-09-30 08:32:06
35657 150155514 muddz auTOP bhop_nuclear Normal / Main 19.547s 27 42 94.13% 76.18 2019-10-03 07:08:01
35661 150155514 muddz auTOP bhop_peachrace_csgo Normal / Main 01:38.508m 133 224 92.80% 156.57 2019-10-03 07:49:41
35677 150155514 muddz auTOP bhop_cq Normal / Main 12:21.062m 567 1481 83.97% 259.53 2019-10-03 09:51:25
35688 150155514 muddz auTOP bhop_miles Normal / Main 17.711s 26 46 91.64% 147.15 2019-10-03 10:16:18
35701 150155514 muddz auTOP bhop_lambda_csgo Normal / Bonus 14.727s 10 36 92.73% 18.87 2019-10-03 10:45:24
36854 150155514 muddz auTOP bhop_somehopez Normal / Main 12.969s 15 43 90.49% 73.28 2019-10-07 06:02:46
36863 150155514 muddz auTOP bhop_somehopez High FOV / Main 29.367s 34 81 87.86% 19.24 2019-10-07 06:15:08
36871 150155514 muddz auTOP bhop_somehopez Low Gravity / Main 13.977s 9 34 90.88% 55.82 2019-10-07 06:19:29
36949 150155514 muddz auTOP bhop_dragon_fix Normal / Main 10:36.102m 676 1284 86.38% 389.58 2019-10-07 10:16:52
36951 150155514 muddz auTOP bhop_shaft Normal / Main 29.656s 45 81 88.87% 151.98 2019-10-07 10:40:09
36959 150155514 muddz auTOP bhop_smudge_csgo Normal / Main 27.016s 35 88 90.96% 76.80 2019-10-07 10:59:40
36965 150155514 muddz auTOP bhop_scape Normal / Main 36.836s 39 86 92.09% 121.74 2019-10-07 11:04:22
37081 150155514 muddz auTOP bhop_esip Normal / Main 58.883s 61 107 94.14% 153.93 2019-10-08 08:56:16
37344 150155514 muddz auTOP bhop_untitled_mp Normal / Main 01:26.008m 110 186 86.04% 230.73 2019-10-09 07:23:40
37346 150155514 muddz auTOP bhop_untitled_mp Low Gravity / Main 01:31.578m 59 198 80.61% 173.33 2019-10-09 07:25:21
37348 150155514 muddz auTOP bhop_disgustipated Normal / Main 21.281s 29 55 87.85% 151.42 2019-10-09 07:52:27
46742 150155514 muddz auTOP bhop_huni Normal / Main 40.484s 61 96 92.25% 152.70 2019-11-23 11:46:38
58561 150155514 muddz auTOP bhop_alien_sewers_v3 Normal / Main 02:16.695m 170 320 89.94% 190.88 2020-01-22 08:23:16
58562 150155514 muddz auTOP bhop_alien_sewers_v3 Normal / Bonus 8.109s 11 39 85.98% 18.13 2020-01-22 08:26:09
12480 150155514 muddz auTOP bhop_kiwi_cwfx_csgo_b5 Normal / Main 22.672s 25 78 90.14% 76.11 2020-01-22 09:05:09
60163 150155514 muddz auTOP bhop_blocker Normal / Main 22.422s 30 66 87.92% 74.89 2020-01-31 12:47:32
60303 150155514 muddz auTOP bhop_esthetic_gay Normal / Main 20.945s 27 65 90.26% 147.12 2020-02-01 12:00:53
60304 150155514 muddz auTOP bhop_namastefixed Normal / Main 01:06.508m 88 158 87.90% 154.43 2020-02-01 12:22:19
62582 150155514 muddz auTOP bhop_fishey_v3_rg1 Normal / Bonus 6.375s 7 29 84.97% 18.16 2020-02-14 09:49:04
62618 150155514 muddz auTOP bhop_fishey_v3_rg1 Normal / Main 51.445s 61 164 87.02% 153.43 2020-02-14 10:01:03
62628 150155514 muddz auTOP bhop_isomer Normal / Main 14.469s 19 41 92.61% 74.97 2020-02-14 10:12:07
66550 150155514 muddz auTOP bhop_kz_minimalism D-Only / Main 05:02.289m 354 9 74.08% 111.50 2020-02-29 12:18:01
66557 150155514 muddz auTOP bhop_kz_minimalism Normal / Bonus 32.398s 41 46 93.46% 19.29 2020-02-29 12:24:25
66537 150155514 muddz auTOP bhop_kz_minimalism Normal / Main 57.477s 78 150 89.86% 153.83 2020-02-29 12:37:16
66563 150155514 muddz auTOP bhop_kz_minimalism Half-Sideways / Main 01:30.664m 117 144 96.39% 156.04 2020-02-29 12:40:23
66565 150155514 muddz auTOP bhop_lego2 Normal / Bonus 02:10.031m 128 271 84.62% 20.92 2020-02-29 13:25:50
66567 150155514 muddz auTOP bhop_ceekay Normal / Main 02:14.383m 178 314 91.17% 158.96 2020-02-29 13:51:58
19870 150155514 muddz auTOP bhop_kokiri Normal / Main 51.594s 65 116 92.24% 78.44 2020-02-29 14:09:01
68232 150155514 muddz auTOP bhop_greenglow_csgo Normal / Bonus 7.586s 9 23 89.22% 18.86 2020-03-06 09:39:53
68238 150155514 muddz auTOP bhop_greenglow_csgo Sideways / Bonus 7.789s 9 20 91.49% 18.84 2020-03-06 09:43:18
68212 150155514 muddz auTOP bhop_greenglow_csgo Normal / Main 40.672s 52 72 93.68% 152.71 2020-03-06 09:46:27
69172 150155514 muddz auTOP bhop_4colors Normal / Main 02:18.008m 158 319 91.28% 234.20 2020-03-09 09:14:36
69196 150155514 muddz auTOP bhop_freedompuppies Normal / Main 4.359s 6 20 89.39% 72.45 2020-03-09 09:26:02
69954 150155514 muddz auTOP bhop_prometheus Normal / Main 04:03.148m 206 392 93.17% 316.21 2020-03-12 10:59:34
69955 150155514 muddz auTOP bhop_aux_a9_csgo Normal / Main 10:42.602m 768 1017 92.72% 417.84 2020-03-12 11:42:48
76694 150155514 muddz auTOP bhop_anxiety Normal / Main 05:20.625m 363 742 85.77% 133.90 2020-04-07 14:07:22
82174 150155514 muddz auTOP bhop_castlerg Normal / Main 21.195s 33 57 89.47% 151.41 2020-04-23 08:58:00
82178 150155514 muddz auTOP bhop_bluerace Normal / Main 52.320s 68 135 87.39% 153.49 2020-04-23 09:25:44
82732 150155514 muddz auTOP bhop_null Normal / Main 08:27.359m 623 1222 84.28% 237.19 2020-04-25 08:55:12
85279 150155514 muddz auTOP bhop_pillar Normal / Main 28.281s 37 69 89.38% 226.89 2020-05-02 14:30:53